KHBR

Hobart Regional Airport

Hobart, Oklahoma, USA
METAR KHBR 181953Z AUTO 20009KT 10SM CLR 12/05 A3009 RMK AO2 SLP190 T01170050
Observed Flight Rules
Dec-18 @ 19:53 UTC (27 minutes ago) Visual Flight Rules
Wind Visibility Clouds
200° at 9 knots 10 miles
  • Clear skies
Temperatures Readings
Current 12°C / 54°F
Dewpoint 5°C / 41°F
Humidity 63%
Altimeter 30.09" Hg
Pressure 1019 hPa
Elevation 473
METAR KHBR 181953Z AUTO 20009KT 10SM CLR 12/05 A3009 RMK AO2 SLP190 T01170050
Observed Flight Rules
Dec-18 @ 19:53 UTC
(27 minutes ago)
VFR
Wind Visibility
200° at 9 knots 10 miles
Clouds
  • Clear skies
Temperature Dewpoint
12°C / 54°F 5°C / 41°F
Humidity Altimeter Pressure
63% 30.09" Hg 1019 hPa